Time;durP1;ratioP1;P1;durP2;ratioP2;P2;SDS_P1;SDS_P2;PMS_P1;PMS_P2;Temp;Humidity;BMP_temperature;BMP_pressure;BME280_temperature;BME280_humidity;BME280_pressure;Samples;Min_cycle;Max_cycle;Signal;HPM_P1;HPM_P2
2022/05/15 00:01:12;;;;;;;8.90;3.15;;;12.80;99.90;;;;;;5034208;28;20444;-83
2022/05/15 00:03:39;;;;;;;12.40;3.50;;;12.80;99.90;;;;;;5033727;28;20021;-83
2022/05/15 00:06:05;;;;;;;5.53;2.63;;;12.70;99.90;;;;;;5017491;28;20566;-84
2022/05/15 00:08:35;;;;;;;5.18;2.78;;;12.70;99.90;;;;;;5017864;28;20029;-83
2022/05/15 00:11:00;;;;;;;5.18;2.55;;;12.60;99.90;;;;;;5017180;28;20033;-83
2022/05/15 00:13:27;;;;;;;7.63;2.75;;;12.50;99.90;;;;;;5017629;28;20075;-83
2022/05/15 00:16:33;;;;;;;6.00;3.05;;;12.40;99.90;;;;;;5033067;28;20118;-83
2022/05/15 00:18:59;;;;;;;9.05;2.70;;;12.40;99.90;;;;;;5034053;28;20033;-83
2022/05/15 00:25:13;;;;;;;10.25;2.95;;;12.70;99.90;;;;;;5035434;28;20037;-83
2022/05/15 00:27:38;;;;;;;5.70;2.60;;;12.90;99.90;;;;;;5017099;28;20037;-83
2022/05/15 00:30:04;;;;;;;9.98;3.03;;;12.80;99.90;;;;;;5015957;28;20859;-83
2022/05/15 00:32:32;;;;;;;5.45;2.67;;;12.80;99.90;;;;;;5017253;28;20038;-83
2022/05/15 00:34:58;;;;;;;3.63;2.40;;;12.80;99.90;;;;;;5033635;28;20026;-83
2022/05/15 00:37:25;;;;;;;6.63;2.50;;;12.80;99.90;;;;;;5017050;28;20032;-83
2022/05/15 00:39:52;;;;;;;6.78;2.63;;;12.70;99.90;;;;;;5017370;28;20037;-83
2022/05/15 00:42:17;;;;;;;10.32;3.10;;;12.60;99.90;;;;;;5017131;28;20037;-83
2022/05/15 00:44:43;;;;;;;8.57;3.20;;;12.60;99.90;;;;;;5033494;28;20099;-83
2022/05/15 00:47:09;;;;;;;6.32;2.47;;;12.60;99.90;;;;;;5016733;28;20037;-82
2022/05/15 00:49:36;;;;;;;12.85;2.83;;;12.60;99.90;;;;;;5016147;28;20409;-83
2022/05/15 00:52:05;;;;;;;7.82;2.67;;;12.60;99.90;;;;;;5016640;28;20037;-83
2022/05/15 00:54:55;;;;;;;13.65;3.72;;;12.50;99.90;;;;;;5032909;28;20444;-83
2022/05/15 00:57:26;;;;;;;6.65;2.45;;;12.50;99.90;;;;;;5016330;28;20105;-83
2022/05/15 01:03:39;;;;;;;7.70;2.78;;;12.70;99.90;;;;;;5034600;28;20072;-83
2022/05/15 01:06:08;;;;;;;5.35;2.67;;;12.80;99.90;;;;;;5015966;28;20065;-83
2022/05/15 01:08:33;;;;;;;5.78;2.38;;;12.90;99.90;;;;;;5033091;28;20101;-83
2022/05/15 01:11:08;;;;;;;9.65;2.85;;;13.00;99.90;;;;;;5015782;28;20750;-83
2022/05/15 01:13:37;;;;;;;9.23;3.22;;;13.00;99.90;;;;;;5016405;28;20080;-83
2022/05/15 01:16:10;;;;;;;7.63;2.97;;;13.00;99.90;;;;;;5016027;28;20030;-83
2022/05/15 01:18:38;;;;;;;10.00;2.42;;;13.00;99.90;;;;;;5016323;28;20040;-83
2022/05/15 01:21:42;;;;;;;5.13;2.47;;;12.90;99.90;;;;;;5015910;28;20037;-83
2022/05/15 01:24:08;;;;;;;10.73;3.00;;;13.00;99.90;;;;;;5016340;28;20039;-83
2022/05/15 01:26:36;;;;;;;7.40;2.60;;;13.00;99.90;;;;;;5016065;28;20060;-83
2022/05/15 01:29:04;;;;;;;5.47;2.38;;;12.90;99.90;;;;;;5015934;28;20405;-83
2022/05/15 01:31:31;;;;;;;4.13;2.33;;;13.00;99.90;;;;;;5016010;28;20053;-83
2022/05/15 01:33:59;;;;;;;5.32;2.58;;;12.90;99.90;;;;;;5015973;28;20491;-83
2022/05/15 01:36:27;;;;;;;11.00;3.08;;;12.90;99.90;;;;;;5032129;28;20087;-83
2022/05/15 01:38:54;;;;;;;7.47;2.45;;;12.90;99.90;;;;;;5032431;28;20423;-83
2022/05/15 01:41:21;;;;;;;9.15;2.90;;;12.90;99.90;;;;;;5015224;28;20037;-83
2022/05/15 01:43:52;;;;;;;6.30;2.22;;;13.00;99.90;;;;;;5015771;28;20496;-84
2022/05/15 01:46:26;;;;;;;5.70;2.87;;;13.00;99.90;;;;;;5015712;28;20033;-83
2022/05/15 01:48:54;;;;;;;8.77;2.83;;;12.90;99.90;;;;;;5016018;28;20065;-84
2022/05/15 01:51:22;;;;;;;8.68;2.72;;;12.80;99.90;;;;;;5016076;28;20080;-83
2022/05/15 01:53:49;;;;;;;7.65;3.20;;;12.80;99.90;;;;;;5015490;28;20029;-84
2022/05/15 01:56:15;;;;;;;12.85;2.65;;;12.70;99.90;;;;;;5015496;28;20023;-83
2022/05/15 01:58:41;;;;;;;9.95;2.80;;;12.70;99.90;;;;;;5015525;28;20037;-83
2022/05/15 02:01:08;;;;;;;5.82;2.78;;;12.60;99.90;;;;;;5015921;28;20029;-83
2022/05/15 02:03:35;;;;;;;5.57;2.90;;;12.60;99.90;;;;;;5016001;28;20033;-84
2022/05/15 02:06:02;;;;;;;5.90;2.47;;;12.60;99.90;;;;;;5015621;28;20063;-84
2022/05/15 02:08:30;;;;;;;10.77;2.88;;;12.60;99.90;;;;;;5032255;28;20025;-83
2022/05/15 02:10:57;;;;;;;4.60;2.55;;;12.60;99.90;;;;;;5015201;28;20392;-83
2022/05/15 02:13:32;;;;;;;7.78;2.83;;;12.60;99.90;;;;;;5015793;28;20029;-83
2022/05/15 02:15:58;;;;;;;7.40;2.72;;;12.50;99.90;;;;;;5014756;28;20120;-83
2022/05/15 02:18:24;;;;;;;8.27;3.72;;;12.50;99.90;;;;;;5031866;28;20029;-83
2022/05/15 02:20:50;;;;;;;9.10;3.70;;;12.50;99.90;;;;;;5015962;28;20028;-83
2022/05/15 02:23:16;;;;;;;13.38;3.40;;;12.50;99.90;;;;;;5015184;28;20400;-83
2022/05/15 02:25:42;;;;;;;5.78;2.80;;;12.40;99.90;;;;;;5014719;28;20079;-83
2022/05/15 02:28:09;;;;;;;7.60;2.88;;;12.30;99.90;;;;;;5031641;28;20473;-83
2022/05/15 02:30:35;;;;;;;4.78;2.78;;;12.30;99.90;;;;;;5031606;28;20481;-83
2022/05/15 02:33:01;;;;;;;10.27;3.05;;;12.20;99.90;;;;;;5031489;28;20443;-83
2022/05/15 02:35:27;;;;;;;5.20;2.45;;;12.30;99.90;;;;;;5015310;28;20394;-83
2022/05/15 02:37:53;;;;;;;7.82;3.08;;;12.20;99.90;;;;;;5014713;28;20036;-83
2022/05/15 02:40:23;;;;;;;12.60;3.05;;;12.20;99.90;;;;;;5015254;28;20026;-83
2022/05/15 02:42:56;;;;;;;7.70;3.50;;;12.20;99.90;;;;;;5014953;28;20083;-83
2022/05/15 02:45:22;;;;;;;4.85;2.63;;;12.20;99.90;;;;;;5015169;28;20029;-83
2022/05/15 02:47:48;;;;;;;13.50;3.33;;;12.10;99.90;;;;;;5014715;28;20075;-83
2022/05/15 02:52:59;;;;;;;9.20;2.60;;;12.10;99.90;;;;;;5032934;28;20025;-83
2022/05/15 02:55:25;;;;;;;10.02;3.05;;;12.10;99.90;;;;;;5019163;28;20756;-83
2022/05/15 02:57:52;;;;;;;10.77;3.00;;;12.10;99.90;;;;;;5018869;28;20030;-83
2022/05/15 03:00:22;;;;;;;9.88;3.17;;;12.10;99.90;;;;;;5018679;28;20021;-83
2022/05/15 03:02:47;;;;;;;7.55;3.10;;;12.00;99.90;;;;;;5019344;28;20535;-83
2022/05/15 03:05:16;;;;;;;6.68;3.00;;;12.10;99.90;;;;;;5035583;28;20500;-83
2022/05/15 03:07:42;;;;;;;5.32;2.50;;;12.10;99.90;;;;;;5035312;28;20481;-83
2022/05/15 03:10:11;;;;;;;9.02;2.78;;;12.10;99.90;;;;;;5035427;28;20075;-83
2022/05/15 03:12:37;;;;;;;6.55;3.15;;;12.10;99.90;;;;;;5018774;28;20118;-83
2022/05/15 03:15:05;;;;;;;8.73;3.00;;;12.00;99.90;;;;;;5019034;28;20037;-83
2022/05/15 03:17:33;;;;;;;4.57;2.63;;;12.10;99.90;;;;;;5018199;28;20038;-83
2022/05/15 03:19:59;;;;;;;7.68;3.17;;;12.10;99.90;;;;;;5034990;28;20160;-83
2022/05/15 03:22:24;;;;;;;5.97;3.13;;;12.00;99.90;;;;;;5034873;28;20824;-83
2022/05/15 03:24:50;;;;;;;10.00;3.55;;;12.00;99.90;;;;;;5018568;28;20148;-83
2022/05/15 03:27:16;;;;;;;6.97;2.97;;;12.00;99.90;;;;;;5018315;28;20040;-83
2022/05/15 03:29:42;;;;;;;5.47;3.38;;;11.90;99.90;;;;;;5018121;28;20025;-83
2022/05/15 03:32:08;;;;;;;14.30;4.32;;;11.90;99.90;;;;;;5017710;28;20026;-83
2022/05/15 03:34:34;;;;;;;4.82;3.10;;;11.90;99.90;;;;;;5034723;28;20030;-83
2022/05/15 03:37:00;;;;;;;5.97;3.13;;;11.90;99.90;;;;;;5018159;28;20033;-83
2022/05/15 03:39:26;;;;;;;8.88;3.75;;;11.90;99.90;;;;;;5018016;28;20038;-83
2022/05/15 03:41:52;;;;;;;6.97;3.53;;;11.80;99.90;;;;;;5018162;28;20040;-82
2022/05/15 03:44:19;;;;;;;6.13;3.47;;;11.80;99.90;;;;;;5018223;28;20036;-81
2022/05/15 03:46:46;;;;;;;7.60;3.80;;;11.80;99.90;;;;;;5018192;28;20036;-80
2022/05/15 03:49:13;;;;;;;5.78;3.67;;;11.70;99.90;;;;;;5034516;28;20033;-80
2022/05/15 03:51:40;;;;;;;12.93;3.80;;;11.70;99.90;;;;;;5018235;28;20083;-80
2022/05/15 03:54:07;;;;;;;8.00;3.53;;;11.70;99.90;;;;;;5034525;28;20535;-80
2022/05/15 03:56:51;;;;;;;11.48;4.32;;;11.70;99.90;;;;;;5017696;28;20029;-81
2022/05/15 03:59:28;;;;;;;6.60;3.10;;;11.70;99.90;;;;;;5034544;28;20032;-80
2022/05/15 04:01:54;;;;;;;7.05;3.90;;;11.80;99.90;;;;;;5034684;28;20056;-81
2022/05/15 04:04:21;;;;;;;8.90;3.75;;;11.80;99.90;;;;;;5033668;28;20484;-81
2022/05/15 04:06:47;;;;;;;9.13;3.92;;;11.90;99.90;;;;;;5017728;28;20124;-81
2022/05/15 04:09:12;;;;;;;15.35;4.80;;;11.90;99.90;;;;;;5034151;28;20033;-81
2022/05/15 04:11:38;;;;;;;10.30;4.78;;;11.90;99.90;;;;;;5017611;28;20408;-81
2022/05/15 04:14:30;;;;;;;9.65;3.70;;;11.90;99.90;;;;;;5034201;28;20421;-80
2022/05/15 04:16:55;;;;;;;8.05;4.07;;;11.90;99.90;;;;;;5017649;28;20182;-80
2022/05/15 04:19:22;;;;;;;10.30;4.05;;;11.90;99.90;;;;;;5034012;28;20071;-80
2022/05/15 04:21:48;;;;;;;8.68;3.67;;;11.90;99.90;;;;;;5017871;28;20033;-80
2022/05/15 04:24:16;;;;;;;10.13;4.28;;;12.00;99.90;;;;;;5017668;28;20094;-80
2022/05/15 04:26:43;;;;;;;16.63;4.40;;;12.00;99.90;;;;;;5017355;28;20026;-81
2022/05/15 04:29:31;;;;;;;11.82;4.82;;;12.10;99.90;;;;;;5034015;28;20401;-81
2022/05/15 04:31:56;;;;;;;9.57;4.50;;;12.10;99.90;;;;;;5017120;28;20053;-80
2022/05/15 04:34:27;;;;;;;7.55;4.38;;;12.20;99.90;;;;;;5017595;28;20064;-80
2022/05/15 04:36:54;;;;;;;7.10;4.00;;;12.20;99.90;;;;;;5033415;28;20532;-80
2022/05/15 04:39:20;;;;;;;9.38;3.83;;;12.20;99.90;;;;;;5033914;28;20137;-80
2022/05/15 04:41:46;;;;;;;6.88;4.00;;;12.30;99.90;;;;;;5017005;28;20037;-80
2022/05/15 04:44:17;;;;;;;13.60;4.63;;;12.40;99.90;;;;;;5033630;28;20053;-80
2022/05/15 04:46:43;;;;;;;15.10;3.95;;;12.40;99.90;;;;;;5016680;28;20065;-80
2022/05/15 04:49:09;;;;;;;12.82;4.82;;;12.50;99.90;;;;;;5016686;28;20067;-80
2022/05/15 04:51:35;;;;;;;7.68;3.67;;;12.60;99.90;;;;;;5016511;28;20052;-81
2022/05/15 04:54:00;;;;;;;9.23;4.22;;;12.70;99.90;;;;;;5016592;28;20036;-80
2022/05/15 05:00:17;;;;;;;9.65;4.25;;;12.90;99.90;;;;;;5034033;28;20040;-81
2022/05/15 05:02:44;;;;;;;9.88;4.30;;;13.00;99.90;;;;;;5032681;28;20057;-81
2022/05/15 05:05:10;;;;;;;9.00;3.83;;;13.00;99.90;;;;;;5032626;28;20029;-80
2022/05/15 05:07:48;;;;;;;8.15;3.53;;;13.10;99.90;;;;;;5015814;28;20033;-81
2022/05/15 05:10:15;;;;;;;10.07;4.00;;;13.20;99.90;;;;;;5015067;28;20041;-81
2022/05/15 05:12:41;;;;;;;9.32;3.63;;;13.30;99.90;;;;;;5015972;28;20512;-81
2022/05/15 05:15:08;;;;;;;8.63;4.40;;;13.30;99.90;;;;;;5015073;28;20018;-81
2022/05/15 05:17:34;;;;;;;11.48;3.75;;;13.40;99.90;;;;;;5033698;28;20029;-81
2022/05/15 05:20:00;;;;;;;10.63;4.20;;;13.50;99.90;;;;;;5015844;28;20148;-81
2022/05/15 05:22:26;;;;;;;8.85;3.47;;;13.50;99.90;;;;;;5015813;28;20052;-81
2022/05/15 05:24:52;;;;;;;7.03;3.63;;;13.70;99.90;;;;;;5031800;28;20519;-80
2022/05/15 05:27:17;;;;;;;10.80;4.00;;;13.80;99.90;;;;;;5031689;28;20041;-81
2022/05/15 05:29:43;;;;;;;9.77;3.75;;;13.80;99.90;;;;;;5032300;28;20637;-81
2022/05/15 05:32:09;;;;;;;8.30;3.30;;;13.80;99.90;;;;;;5015983;28;20113;-81
2022/05/15 05:34:35;;;;;;;5.35;3.00;;;14.00;99.90;;;;;;5032081;28;20029;-81
2022/05/15 05:37:01;;;;;;;10.90;3.88;;;14.10;99.90;;;;;;5032968;28;20025;-81
2022/05/15 05:39:29;;;;;;;15.68;4.65;;;14.30;99.90;;;;;;5031941;28;20397;-81
2022/05/15 05:41:56;;;;;;;7.68;4.10;;;14.50;99.90;;;;;;5015581;28;20041;-81
2022/05/15 05:44:23;;;;;;;7.70;3.78;;;14.70;99.90;;;;;;5031638;28;20185;-81
2022/05/15 05:46:48;;;;;;;9.18;3.25;;;14.80;99.90;;;;;;5031708;28;20052;-81
2022/05/15 05:49:14;;;;;;;13.23;3.72;;;14.90;99.90;;;;;;5032013;28;20030;-81
2022/05/15 05:51:40;;;;;;;8.98;3.00;;;15.00;99.90;;;;;;5015732;28;20477;-81
2022/05/15 05:54:08;;;;;;;9.73;3.35;;;15.00;99.90;;;;;;5031955;28;20037;-81
2022/05/15 05:56:34;;;;;;;8.18;3.47;;;15.10;99.90;;;;;;5031651;28;20044;-81
2022/05/15 05:59:00;;;;;;;8.18;3.65;;;15.00;99.90;;;;;;5031876;28;20033;-81
2022/05/15 06:01:25;;;;;;;5.55;3.20;;;15.10;99.90;;;;;;5015664;28;20088;-81
2022/05/15 06:06:35;;;;;;;4.95;3.10;;;15.30;99.90;;;;;;5031479;28;20040;-81
2022/05/15 06:09:10;;;;;;;8.43;3.55;;;15.40;99.90;;;;;;5031922;28;20045;-81
2022/05/15 06:11:36;;;;;;;8.85;3.45;;;15.50;99.90;;;;;;5031499;28;20480;-82
2022/05/15 06:14:02;;;;;;;5.57;2.90;;;15.60;99.90;;;;;;5031852;28;20033;-81
2022/05/15 06:16:27;;;;;;;11.10;3.88;;;15.70;99.90;;;;;;5030675;28;20404;-81
2022/05/15 06:18:53;;;;;;;14.57;3.35;;;15.70;99.90;;;;;;5014563;28;20033;-81
2022/05/15 06:21:19;;;;;;;11.80;2.83;;;15.90;99.90;;;;;;5031275;28;20033;-81
2022/05/15 06:23:44;;;;;;;12.02;3.55;;;15.90;99.90;;;;;;5031345;28;20029;-81
2022/05/15 06:26:10;;;;;;;7.72;3.50;;;16.00;99.90;;;;;;5015130;28;20021;-81
2022/05/15 06:28:36;;;;;;;9.48;3.20;;;16.10;99.90;;;;;;5031906;28;20033;-81
2022/05/15 06:31:03;;;;;;;12.43;3.53;;;16.10;99.90;;;;;;5031957;28;20448;-81
2022/05/15 06:33:28;;;;;;;9.25;3.35;;;16.30;99.90;;;;;;5015697;28;20061;-81
2022/05/15 06:35:54;;;;;;;10.30;3.13;;;16.40;99.90;;;;;;5032626;28;20052;-82
2022/05/15 06:38:20;;;;;;;6.93;3.10;;;16.50;99.90;;;;;;5031268;28;20037;-82
2022/05/15 06:40:45;;;;;;;4.53;2.83;;;16.60;99.90;;;;;;5014702;28;20026;-82
2022/05/15 06:43:11;;;;;;;9.90;3.38;;;16.70;99.90;;;;;;5014604;28;20824;-81
2022/05/15 06:45:37;;;;;;;6.40;2.78;;;16.80;99.90;;;;;;5031148;28;20069;-81
2022/05/15 06:48:03;;;;;;;6.38;3.20;;;16.90;99.90;;;;;;5014580;28;20473;-81
2022/05/15 06:50:29;;;;;;;5.45;3.30;;;17.00;99.90;;;;;;5014992;28;20037;-81
2022/05/15 06:52:54;;;;;;;10.23;3.42;;;17.00;99.90;;;;;;5014048;28;20094;-82
2022/05/15 06:55:23;;;;;;;11.05;3.40;;;17.10;99.90;;;;;;5014576;28;20025;-80
2022/05/15 06:57:50;;;;;;;10.65;3.13;;;17.20;99.90;;;;;;5032416;28;20033;-81
2022/05/15 07:00:28;;;;;;;12.50;3.42;;;17.30;99.90;;;;;;5014900;28;20174;-81
2022/05/15 07:02:53;;;;;;;8.30;2.90;;;17.40;99.90;;;;;;5032780;28;20504;-81
2022/05/15 07:05:31;;;;;;;11.88;3.50;;;17.40;99.90;;;;;;5014755;28;20026;-81
2022/05/15 07:07:56;;;;;;;9.25;3.75;;;17.50;99.90;;;;;;5014791;28;20037;-81
2022/05/15 07:10:23;;;;;;;9.57;2.83;;;17.60;99.90;;;;;;5014952;28;20037;-82
2022/05/15 07:12:50;;;;;;;5.80;2.50;;;17.60;99.90;;;;;;5031653;28;20116;-82
2022/05/15 07:15:16;;;;;;;7.30;2.58;;;17.70;99.90;;;;;;5031011;28;20040;-82
2022/05/15 07:17:41;;;;;;;8.93;3.80;;;17.80;99.90;;;;;;5030843;28;20041;-82
2022/05/15 07:20:08;;;;;;;9.63;3.40;;;17.90;99.90;;;;;;5032431;28;20478;-81
2022/05/15 07:22:33;;;;;;;8.57;3.15;;;18.00;99.90;;;;;;5031116;28;20030;-81
2022/05/15 07:25:00;;;;;;;6.90;2.50;;;18.10;99.90;;;;;;5013852;28;20024;-82
2022/05/15 07:27:25;;;;;;;5.60;2.88;;;18.10;99.90;;;;;;5030991;28;20029;-81
2022/05/15 07:29:51;;;;;;;8.45;3.17;;;18.20;99.90;;;;;;5031065;28;20044;-81
2022/05/15 07:32:17;;;;;;;9.65;3.17;;;18.40;99.90;;;;;;5014510;28;20806;-81
2022/05/15 07:34:42;;;;;;;8.70;3.28;;;18.40;99.90;;;;;;5030777;28;20022;-81
2022/05/15 07:37:09;;;;;;;11.43;2.92;;;18.60;99.90;;;;;;5031907;28;20021;-81
2022/05/15 07:39:34;;;;;;;7.18;3.05;;;18.60;99.90;;;;;;5033682;28;20511;-82
2022/05/15 07:42:00;;;;;;;7.93;2.78;;;18.70;99.90;;;;;;5034588;28;20021;-82
2022/05/15 07:44:26;;;;;;;7.45;3.28;;;18.70;99.90;;;;;;5034906;28;20037;-81
2022/05/15 07:46:52;;;;;;;8.00;2.85;;;18.80;99.90;;;;;;5034427;28;20466;-81
2022/05/15 07:49:17;;;;;;;9.75;2.95;;;18.90;99.90;;;;;;5017549;28;20507;-81
2022/05/15 07:51:46;;;;;;;9.85;2.97;;;18.90;99.90;;;;;;5017733;28;20033;-81
2022/05/15 07:54:15;;;;;;;7.55;2.78;;;19.30;99.90;;;;;;5035084;28;20091;-82
2022/05/15 07:56:41;;;;;;;8.27;2.42;;;19.80;99.90;;;;;;5033966;28;20025;-82
2022/05/15 07:59:07;;;;;;;7.00;2.45;;;20.90;99.90;;;;;;5018008;28;20033;-82
2022/05/15 08:01:34;;;;;;;8.52;2.60;;;22.10;99.90;;;;;;5034351;28;20033;-82
2022/05/15 08:04:00;;;;;;;8.10;2.45;;;22.60;99.90;;;;;;5017654;28;20029;-81
2022/05/15 08:09:10;;;;;;;8.98;2.40;;;23.10;99.90;;;;;;5035486;28;20124;-81
2022/05/15 08:11:36;;;;;;;5.97;2.60;;;23.60;99.50;;;;;;5017704;28;20033;-82
2022/05/15 08:14:04;;;;;;;8.77;2.38;;;23.90;97.60;;;;;;5017244;28;20041;-82
2022/05/15 08:16:37;;;;;;;6.20;2.45;;;23.50;95.30;;;;;;5017174;28;20084;-81
2022/05/15 08:24:33;;;;;;;5.85;2.08;;;25.80;91.50;;;;;;5033334;28;20041;-82
2022/05/15 08:26:59;;;;;;;7.68;2.35;;;26.40;87.80;;;;;;5033192;28;20393;-82
2022/05/15 08:29:25;;;;;;;5.15;2.13;;;26.20;84.20;;;;;;5016681;28;20044;-82
2022/05/15 08:31:51;;;;;;;8.10;2.90;;;25.50;85.70;;;;;;5033222;28;20481;-82
2022/05/15 08:34:17;;;;;;;5.78;1.95;;;25.10;86.50;;;;;;5017194;28;20120;-81
2022/05/15 08:36:44;;;;;;;6.50;2.90;;;25.60;87.10;;;;;;5033313;28;20057;-82
2022/05/15 08:39:12;;;;;;;5.90;2.47;;;25.80;84.20;;;;;;5016738;28;20025;-82
2022/05/15 08:41:55;;;;;;;8.30;2.42;;;25.80;82.80;;;;;;5016495;28;20532;-82
2022/05/15 08:44:32;;;;;;;3.83;2.03;;;26.20;83.40;;;;;;5034322;28;20033;-82
2022/05/15 08:47:18;;;;;;;5.85;2.42;;;25.90;82.30;;;;;;5033449;28;20040;-81
2022/05/15 08:49:57;;;;;;;6.72;2.17;;;26.00;84.00;;;;;;5032220;28;20235;-82
2022/05/15 08:52:57;;;;;;;5.32;2.45;;;25.50;79.80;;;;;;5016568;28;20030;-81
2022/05/15 08:55:25;;;;;;;5.95;2.45;;;25.40;82.40;;;;;;5016591;28;20120;-82
2022/05/15 08:58:09;;;;;;;7.00;3.00;;;25.80;83.60;;;;;;5033081;28;20021;-82
2022/05/15 09:00:50;;;;;;;5.35;2.08;;;26.30;79.00;;;;;;5016764;28;20038;-82
2022/05/15 09:03:31;;;;;;;4.72;2.00;;;26.60;78.10;;;;;;5032999;28;20120;-83
2022/05/15 09:06:00;;;;;;;6.88;2.13;;;26.80;79.50;;;;;;5016987;28;20045;-82
2022/05/15 09:08:44;;;;;;;9.77;2.40;;;27.30;75.30;;;;;;5032719;28;20040;-82
2022/05/15 09:11:10;;;;;;;8.82;2.53;;;27.70;75.30;;;;;;5016523;28;20397;-82
2022/05/15 09:13:44;;;;;;;7.85;2.20;;;27.20;72.30;;;;;;5033086;28;20496;-82
2022/05/15 09:16:21;;;;;;;8.00;2.53;;;26.20;74.80;;;;;;5016235;28;20471;-82
2022/05/15 09:18:46;;;;;;;3.75;2.50;;;25.50;74.40;;;;;;5016440;28;20034;-82
2022/05/15 09:21:14;;;;;;;7.90;2.30;;;25.70;78.00;;;;;;5032238;28;20087;-82
2022/05/15 09:23:46;;;;;;;6.25;2.10;;;26.30;76.10;;;;;;5015904;28;20524;-82
2022/05/15 09:26:38;;;;;;;4.07;2.00;;;26.30;76.10;;;;;;5015330;28;20033;-82
2022/05/15 09:29:14;;;;;;;7.20;1.83;;;26.50;73.90;;;;;;5016357;28;20029;-82
2022/05/15 09:31:42;;;;;;;6.85;2.22;;;26.40;72.30;;;;;;5015458;28;20037;-82
2022/05/15 09:34:20;;;;;;;6.10;2.40;;;26.10;73.60;;;;;;5015324;28;20393;-82
2022/05/15 09:36:47;;;;;;;4.65;1.83;;;25.30;75.00;;;;;;5031016;28;20030;-82
2022/05/15 09:39:25;;;;;;;8.45;2.03;;;25.30;75.50;;;;;;5015191;28;20041;-82
2022/05/15 09:44:59;;;;;;;11.90;2.65;;;25.20;76.50;;;;;;5032130;28;20416;-82
2022/05/15 09:47:33;;;;;;;6.15;2.22;;;25.10;74.00;;;;;;5031944;28;20029;-82
2022/05/15 09:49:59;;;;;;;6.95;2.20;;;25.10;77.30;;;;;;5032019;28;20380;-82
2022/05/15 09:52:36;;;;;;;10.73;2.50;;;25.60;76.30;;;;;;5032520;28;20025;-82
2022/05/15 09:55:25;;;;;;;8.57;2.17;;;25.50;75.50;;;;;;5015917;28;20130;-82
2022/05/15 09:57:57;;;;;;;9.20;2.30;;;26.00;76.60;;;;;;5032913;28;20060;-82
2022/05/15 10:00:24;;;;;;;9.73;2.72;;;25.90;74.10;;;;;;5015351;28;20025;-82
2022/05/15 10:02:52;;;;;;;8.38;1.90;;;25.70;76.40;;;;;;5015392;28;20037;-82
2022/05/15 10:05:28;;;;;;;9.32;2.20;;;25.60;72.10;;;;;;5015679;28;20075;-82
2022/05/15 10:08:03;;;;;;;7.30;2.30;;;26.10;69.00;;;;;;5014848;28;20051;-83
2022/05/15 10:10:35;;;;;;;8.00;2.10;;;26.00;75.60;;;;;;5031320;28;20037;-82
2022/05/15 10:13:11;;;;;;;8.43;2.33;;;25.70;69.70;;;;;;5015318;28;20029;-82
2022/05/15 10:15:47;;;;;;;11.40;2.55;;;25.20;72.70;;;;;;5015085;28;20149;-82
2022/05/15 10:18:22;;;;;;;8.75;2.30;;;25.00;71.70;;;;;;5015150;28;20025;-82
2022/05/15 10:20:50;;;;;;;4.82;2.10;;;24.80;74.30;;;;;;5031502;28;20040;-82
2022/05/15 10:23:45;;;;;;;8.27;2.38;;;24.40;75.90;;;;;;5014230;28;20393;-82
2022/05/15 10:26:22;;;;;;;6.95;2.60;;;24.70;75.40;;;;;;5010814;28;20037;-82
2022/05/15 10:29:11;;;;;;;9.32;2.10;;;25.00;73.60;;;;;;5031164;28;20037;-83
2022/05/15 10:31:48;;;;;;;9.20;2.75;;;25.90;72.70;;;;;;5015544;28;20076;-83
2022/05/15 10:34:21;;;;;;;5.65;2.03;;;26.00;67.30;;;;;;5015095;28;20036;-83
2022/05/15 10:36:53;;;;;;;11.48;2.35;;;26.00;67.70;;;;;;5031301;28;20120;-82
2022/05/15 10:40:01;;;;;;;7.28;3.00;;;25.80;65.50;;;;;;5031411;28;20053;-83
2022/05/15 10:42:39;;;;;;;6.22;1.92;;;26.20;68.10;;;;;;5030909;28;20049;-82
2022/05/15 10:45:38;;;;;;;6.18;2.08;;;26.60;64.90;;;;;;5015116;28;20029;-82
2022/05/15 10:48:22;;;;;;;9.10;2.20;;;26.90;68.80;;;;;;5014732;28;20080;-82
2022/05/15 10:51:18;;;;;;;8.05;1.90;;;26.70;66.10;;;;;;5031688;28;20457;-82
2022/05/15 10:57:29;;;;;;;7.75;2.00;;;27.00;66.70;;;;;;5032398;28;20080;-82
2022/05/15 11:00:00;;;;;;;6.03;1.95;;;27.50;67.30;;;;;;5031434;28;20029;-83
2022/05/15 11:03:04;;;;;;;7.00;1.88;;;27.10;62.50;;;;;;5031097;28;20052;-83
2022/05/15 11:05:50;;;;;;;3.42;1.80;;;27.20;61.90;;;;;;5014536;28;20037;-82
2022/05/15 11:08:26;;;;;;;8.27;2.72;;;27.80;63.00;;;;;;5014390;28;20312;-83
2022/05/15 11:11:13;;;;;;;6.47;2.05;;;27.90;63.80;;;;;;5030751;28;20044;-83
2022/05/15 11:14:13;;;;;;;6.85;2.55;;;28.00;62.60;;;;;;5015483;28;20040;-83
2022/05/15 11:16:51;;;;;;;5.70;2.47;;;27.80;65.30;;;;;;5034589;28;20033;-83
2022/05/15 11:19:43;;;;;;;4.15;1.90;;;27.30;64.30;;;;;;5018461;28;20103;-82
2022/05/15 11:22:18;;;;;;;5.97;1.83;;;27.40;61.90;;;;;;5018475;28;20114;-83
2022/05/15 11:25:14;;;;;;;6.45;2.00;;;27.60;63.80;;;;;;5034607;28;20033;-82
2022/05/15 11:27:42;;;;;;;7.35;2.70;;;27.40;67.20;;;;;;5017756;28;20034;-82
2022/05/15 11:30:32;;;;;;;6.25;1.75;;;27.40;64.60;;;;;;5018416;28;20034;-82
2022/05/15 11:33:09;;;;;;;8.15;2.63;;;26.90;65.60;;;;;;5013201;28;20124;-82
2022/05/15 11:35:38;;;;;;;10.93;2.45;;;26.70;64.10;;;;;;5018401;28;20098;-82
2022/05/15 11:38:11;;;;;;;6.50;2.20;;;26.70;66.30;;;;;;5017974;28;20033;-82
2022/05/15 11:40:51;;;;;;;6.45;2.45;;;26.60;64.20;;;;;;5034585;28;20034;-82
2022/05/15 11:43:26;;;;;;;5.85;2.28;;;26.90;68.30;;;;;;5018434;28;20068;-82
2022/05/15 11:45:52;;;;;;;7.70;2.35;;;27.40;63.50;;;;;;5017680;28;20040;-82
2022/05/15 11:48:24;;;;;;;8.38;2.40;;;27.10;65.70;;;;;;5017749;28;20026;-82
2022/05/15 11:50:58;;;;;;;5.75;2.10;;;26.50;65.60;;;;;;5018127;28;20108;-82
2022/05/15 11:53:30;;;;;;;6.05;2.30;;;26.00;67.40;;;;;;5034452;28;20025;-82
2022/05/15 11:55:57;;;;;;;7.85;2.90;;;26.00;68.10;;;;;;5018153;28;20560;-82
2022/05/15 11:58:33;;;;;;;6.05;2.38;;;26.20;64.10;;;;;;5033266;28;20488;-82
2022/05/15 12:01:10;;;;;;;5.80;2.28;;;25.80;69.30;;;;;;5017757;28;20022;-81
2022/05/15 12:03:38;;;;;;;6.75;2.13;;;25.50;68.00;;;;;;5035600;28;20036;-82
2022/05/15 12:06:07;;;;;;;7.35;2.08;;;25.50;69.60;;;;;;5017719;28;20033;-81
2022/05/15 12:08:35;;;;;;;6.13;2.33;;;25.70;63.70;;;;;;5017509;28;20489;-81
2022/05/15 12:11:20;;;;;;;5.00;1.98;;;25.50;66.20;;;;;;5016998;28;20049;-81
2022/05/15 12:13:47;;;;;;;6.55;2.50;;;25.30;66.60;;;;;;5017283;28;20108;-81
2022/05/15 12:16:14;;;;;;;4.10;2.00;;;25.70;68.50;;;;;;5017402;28;20380;-82
2022/05/15 12:18:40;;;;;;;4.50;2.30;;;25.80;67.50;;;;;;5017401;28;20030;-82
2022/05/15 12:24:53;;;;;;;8.85;2.17;;;26.60;63.50;;;;;;5035023;28;20039;-82
2022/05/15 12:27:23;;;;;;;8.82;2.45;;;27.40;65.10;;;;;;5017334;28;20124;-83
2022/05/15 12:29:56;;;;;;;4.78;2.42;;;27.00;62.40;;;;;;5033637;28;20534;-82
2022/05/15 12:32:44;;;;;;;8.30;2.10;;;27.00;67.80;;;;;;5016971;28;20060;-82
2022/05/15 12:35:23;;;;;;;7.10;2.25;;;27.00;65.00;;;;;;5017027;28;20477;-81
2022/05/15 12:38:01;;;;;;;8.60;1.95;;;27.40;60.70;;;;;;5017122;28;20044;-82
2022/05/15 12:40:37;;;;;;;3.85;1.85;;;28.30;60.30;;;;;;5017201;28;20034;-82
2022/05/15 12:43:18;;;;;;;6.47;2.13;;;29.30;61.00;;;;;;5016309;28;20397;-82
2022/05/15 12:45:43;;;;;;;;;;;29.30;62.20;;;;;;5016735;28;20044;-82
2022/05/15 12:48:12;;;;;;;7.85;2.20;;;29.20;58.30;;;;;;5032525;28;19917;-82
2022/05/15 12:51:06;;;;;;;4.53;2.20;;;29.80;59.00;;;;;;5033020;28;20025;-82
2022/05/15 12:53:44;;;;;;;11.65;2.17;;;29.80;59.40;;;;;;5016394;28;20036;-82
2022/05/15 12:56:56;;;;;;;5.25;2.25;;;29.70;64.70;;;;;;5032870;28;20546;-82
2022/05/15 12:59:25;;;;;;;11.18;2.00;;;29.70;59.80;;;;;;5016227;28;20116;-83
2022/05/15 13:06:00;;;;;;;3.88;1.90;;;29.60;60.50;;;;;;5034586;28;20136;-82
2022/05/15 13:08:45;;;;;;;5.20;2.08;;;29.40;59.00;;;;;;5032822;28;20030;-82
2022/05/15 13:11:50;;;;;;;5.28;2.15;;;28.50;60.50;;;;;;5016109;28;20037;-82
2022/05/15 13:14:23;;;;;;;5.55;1.98;;;29.10;57.60;;;;;;5016141;28;20037;-83
2022/05/15 13:16:54;;;;;;;3.83;1.80;;;29.30;62.40;;;;;;5015908;28;20033;-82
2022/05/15 13:19:47;;;;;;;3.75;2.13;;;29.40;58.50;;;;;;5016281;28;20400;-82
2022/05/15 13:22:24;;;;;;;5.45;2.20;;;29.40;58.70;;;;;;5015653;28;20508;-82
2022/05/15 13:24:59;;;;;;;8.77;2.20;;;29.70;56.80;;;;;;5015666;28;20098;-82
2022/05/15 13:27:26;;;;;;;5.47;2.15;;;30.10;56.60;;;;;;5031878;28;20146;-82
2022/05/15 13:29:52;;;;;;;7.28;2.20;;;30.40;57.50;;;;;;5016224;28;20080;-82
2022/05/15 13:32:19;;;;;;;4.78;1.63;;;29.60;58.00;;;;;;5016267;28;20033;-82
2022/05/15 13:34:47;;;;;;;3.78;2.05;;;28.60;59.60;;;;;;5016183;28;20025;-82
2022/05/15 13:37:33;;;;;;;4.80;1.75;;;28.40;60.10;;;;;;5031532;28;20443;-82
2022/05/15 13:45:34;;;;;;;3.75;2.03;;;29.70;58.50;;;;;;5033513;28;20033;-82
2022/05/15 13:48:08;;;;;;;8.18;1.85;;;29.90;56.00;;;;;;5015605;28;20033;-82
2022/05/15 13:50:49;;;;;;;9.25;2.20;;;29.70;57.80;;;;;;5032473;28;20497;-82